createdAt,value
2023-06-22T08:15:00.161Z,16.20
2023-06-22T08:17:28.205Z,17.35
2023-06-22T08:19:56.385Z,14.45
2023-06-22T08:22:23.731Z,14.43
2023-06-22T08:24:51.043Z,15.60
2023-06-22T08:27:18.838Z,15.25
2023-06-22T08:29:46.723Z,14.82
2023-06-22T08:32:14.182Z,17.08
2023-06-22T08:34:41.649Z,15.57
2023-06-22T08:37:12.575Z,13.60
2023-06-22T08:39:40.089Z,14.98
2023-06-22T08:42:08.168Z,15.60
2023-06-22T08:44:35.683Z,14.45
2023-06-22T08:47:03.488Z,14.48
2023-06-22T08:49:31.052Z,13.10
2023-06-22T08:51:58.585Z,12.80
2023-06-22T08:54:25.930Z,12.98
2023-06-22T08:56:53.517Z,12.18
2023-06-22T08:59:20.859Z,11.90
2023-06-22T09:01:48.107Z,10.13
2023-06-22T09:04:16.267Z,11.45
2023-06-22T09:06:44.197Z,10.50
2023-06-22T09:09:13.403Z,10.55
2023-06-22T09:11:40.837Z,10.57
2023-06-22T09:14:08.361Z,9.23
2023-06-22T09:16:36.024Z,9.25
2023-06-22T09:19:04.202Z,8.68
2023-06-22T09:21:33.875Z,9.38
2023-06-22T09:24:01.961Z,9.70
2023-06-22T09:26:29.386Z,9.75
2023-06-22T09:28:56.744Z,8.73
2023-06-22T09:31:24.270Z,8.85
2023-06-22T09:33:55.766Z,9.07
2023-06-22T09:36:23.379Z,8.73
2023-06-22T09:38:51.574Z,11.32
2023-06-22T09:41:19.048Z,9.40
2023-06-22T09:43:46.310Z,11.02
2023-06-22T09:46:13.689Z,10.25
2023-06-22T09:48:41.378Z,9.10
2023-06-22T09:51:09.116Z,10.57
2023-06-22T09:53:36.558Z,10.40
2023-06-22T09:56:04.393Z,9.85
2023-06-22T09:58:32.320Z,10.02
2023-06-22T10:01:03.616Z,10.23
2023-06-22T10:03:31.695Z,10.07
2023-06-22T10:05:59.192Z,9.48
2023-06-22T10:08:26.603Z,10.65
2023-06-22T10:10:54.243Z,9.90
2023-06-22T10:13:21.843Z,9.88
2023-06-22T10:15:49.416Z,9.32
2023-06-22T10:18:17.463Z,9.07
2023-06-22T10:20:51.834Z,9.65
2023-06-22T10:23:21.186Z,9.35
2023-06-22T10:25:49.065Z,9.23
2023-06-22T10:28:17.089Z,9.50
2023-06-22T10:30:45.010Z,9.05
2023-06-22T10:33:13.523Z,8.80
2023-06-22T10:35:40.912Z,8.45
2023-06-22T10:38:11.773Z,8.00
2023-06-22T10:40:39.617Z,7.55
2023-06-22T10:43:12.018Z,7.80
2023-06-22T10:45:40.844Z,7.20
2023-06-22T10:48:08.197Z,7.43
2023-06-22T10:50:36.724Z,7.88
2023-06-22T10:53:04.026Z,7.90
2023-06-22T10:55:43.471Z,7.53
2023-06-22T10:58:20.260Z,8.30
2023-06-22T11:00:47.822Z,7.90
2023-06-22T11:03:15.340Z,8.82
2023-06-22T11:05:42.865Z,7.25
2023-06-22T11:08:10.133Z,7.43
2023-06-22T11:10:37.585Z,6.25
2023-06-22T11:13:04.988Z,7.28
2023-06-22T11:15:32.622Z,7.45
2023-06-22T11:18:00.557Z,6.38
2023-06-22T11:20:28.234Z,6.65
2023-06-22T11:22:55.842Z,7.03
2023-06-22T11:25:23.218Z,7.88
2023-06-22T11:27:50.853Z,8.13
2023-06-22T11:30:18.415Z,8.00
2023-06-22T11:32:46.037Z,7.88
2023-06-22T11:35:13.955Z,8.27
2023-06-22T11:37:41.459Z,8.07
2023-06-22T11:40:10.838Z,7.20
2023-06-22T11:42:38.447Z,8.90
2023-06-22T11:45:07.846Z,7.90
2023-06-22T11:47:35.472Z,7.70
2023-06-22T11:50:03.717Z,8.50
2023-06-22T11:52:31.101Z,7.55
2023-06-22T11:54:58.414Z,7.85
2023-06-22T11:57:25.773Z,8.07
2023-06-22T11:59:53.089Z,8.35
2023-06-22T12:02:20.342Z,8.20
2023-06-22T12:04:47.765Z,8.07
2023-06-22T12:07:15.196Z,7.90
2023-06-22T12:09:42.523Z,7.95
2023-06-22T12:12:10.668Z,8.15
2023-06-22T12:14:38.027Z,8.40
2023-06-22T12:17:05.914Z,7.22
2023-06-22T12:19:33.505Z,8.45
2023-06-22T12:22:00.959Z,7.53
2023-06-22T12:24:28.317Z,8.38
2023-06-22T12:26:56.547Z,8.75
2023-06-22T12:29:23.975Z,9.18
2023-06-22T12:31:51.481Z,8.27
2023-06-22T12:34:18.966Z,8.82
2023-06-22T12:36:46.254Z,8.48
2023-06-22T12:39:13.590Z,8.20
2023-06-22T12:41:41.093Z,8.38
2023-06-22T12:44:08.497Z,8.88
2023-06-22T12:46:36.492Z,9.73
2023-06-22T12:49:03.806Z,8.65
2023-06-22T12:51:31.744Z,8.68
2023-06-22T12:53:59.102Z,8.15
2023-06-22T12:56:26.551Z,8.07
2023-06-22T12:58:54.401Z,9.07
2023-06-22T13:01:22.016Z,9.65
2023-06-22T13:03:49.627Z,9.52
2023-06-22T13:06:17.043Z,8.15
2023-06-22T13:09:19.104Z,8.98
2023-06-22T13:11:31.800Z,9.18
2023-06-22T13:13:59.217Z,8.90
2023-06-22T13:16:26.580Z,8.60
2023-06-22T13:18:54.191Z,9.68
2023-06-22T13:21:21.476Z,9.57
2023-06-22T13:23:48.888Z,9.13
2023-06-22T13:26:16.503Z,9.52
2023-06-22T13:28:44.017Z,9.57
2023-06-22T13:31:11.533Z,8.68
2023-06-22T13:33:39.709Z,8.70
2023-06-22T13:36:07.376Z,9.95
2023-06-22T13:38:37.232Z,9.32
2023-06-22T13:41:04.934Z,10.13
2023-06-22T13:43:32.744Z,9.55
2023-06-22T13:46:00.128Z,9.60
2023-06-22T13:48:27.524Z,9.05
2023-06-22T13:50:55.236Z,10.20
2023-06-22T13:53:22.795Z,9.93
2023-06-22T13:55:50.337Z,10.00
2023-06-22T13:58:17.862Z,10.02
2023-06-22T14:00:45.513Z,9.93
2023-06-22T14:03:17.199Z,9.65
2023-06-22T14:05:45.346Z,10.55
2023-06-22T14:08:40.627Z,10.38
2023-06-22T14:11:07.678Z,10.65
2023-06-22T14:13:35.599Z,9.15
2023-06-22T14:16:04.374Z,9.95
2023-06-22T14:18:31.793Z,9.43
2023-06-22T14:20:59.051Z,10.00
2023-06-22T14:23:28.540Z,10.45
2023-06-22T14:25:56.177Z,10.35
2023-06-22T14:28:25.462Z,11.15
2023-06-22T14:30:53.018Z,9.57
2023-06-22T14:33:23.466Z,10.65
2023-06-22T14:35:51.318Z,9.60
2023-06-22T14:38:23.128Z,9.63
2023-06-22T14:41:06.495Z,10.05
2023-06-22T14:43:37.821Z,10.02
2023-06-22T14:46:05.106Z,10.15
2023-06-22T14:48:32.433Z,9.93
2023-06-22T14:50:59.802Z,10.55
2023-06-22T14:53:27.278Z,10.63
2023-06-22T14:55:54.661Z,10.25
2023-06-22T14:58:22.674Z,10.43
2023-06-22T15:00:50.274Z,10.52
2023-06-22T15:03:17.856Z,9.50
2023-06-22T15:05:47.158Z,9.02
2023-06-22T15:08:14.722Z,10.40
2023-06-22T15:10:42.218Z,9.80
2023-06-22T15:13:09.857Z,10.07
2023-06-22T15:15:37.832Z,9.80
2023-06-22T15:18:05.492Z,10.00
2023-06-22T15:20:33.338Z,9.88
2023-06-22T15:23:00.984Z,11.70
2023-06-22T15:25:28.356Z,10.20
2023-06-22T15:27:55.600Z,10.98
2023-06-22T15:30:23.136Z,10.50
2023-06-22T15:32:50.743Z,9.73
2023-06-22T15:35:18.112Z,10.07
2023-06-22T15:37:46.543Z,9.30
2023-06-22T15:40:14.039Z,10.57
2023-06-22T15:42:41.532Z,9.10
2023-06-22T15:45:12.411Z,10.20
2023-06-22T15:47:39.834Z,11.27
2023-06-22T15:50:08.007Z,10.80
2023-06-22T15:52:35.325Z,10.57
2023-06-22T15:55:02.870Z,11.40
2023-06-22T15:57:31.838Z,11.75
2023-06-22T16:00:02.618Z,11.32
2023-06-22T16:02:30.021Z,11.15
2023-06-22T16:04:57.463Z,10.60
2023-06-22T16:07:24.813Z,12.38
2023-06-22T16:09:53.420Z,11.05
2023-06-22T16:12:20.756Z,11.98
2023-06-22T16:14:51.414Z,11.75
2023-06-22T16:17:18.829Z,11.80
2023-06-22T16:19:46.641Z,12.40
2023-06-22T16:22:14.154Z,13.60
2023-06-22T16:24:41.480Z,11.30
2023-06-22T16:27:08.771Z,11.10
2023-06-22T16:29:36.039Z,10.77
2023-06-22T16:32:03.843Z,12.63
2023-06-22T16:34:31.208Z,11.15
2023-06-22T16:36:58.981Z,11.23
2023-06-22T16:39:26.335Z,11.23
2023-06-22T16:41:53.998Z,11.02
2023-06-22T16:44:21.631Z,11.02
2023-06-22T16:46:49.078Z,11.32
2023-06-22T16:49:16.387Z,11.65
2023-06-22T16:51:44.414Z,11.85
2023-06-22T16:54:13.224Z,12.05
2023-06-22T16:56:40.899Z,11.00
2023-06-22T16:59:08.661Z,11.63
2023-06-22T17:01:36.560Z,11.38
2023-06-22T17:04:11.553Z,11.43
2023-06-22T17:06:43.909Z,12.35
2023-06-22T17:09:15.098Z,11.98
2023-06-22T17:11:43.904Z,11.65
2023-06-22T17:14:12.737Z,12.70
2023-06-22T17:16:46.151Z,11.93
2023-06-22T17:19:14.522Z,11.68
2023-06-22T17:21:42.745Z,12.02
2023-06-22T17:24:13.800Z,12.68
2023-06-22T17:26:41.460Z,11.25
2023-06-22T17:29:10.396Z,12.85
2023-06-22T17:31:42.226Z,11.68
2023-06-22T17:34:14.463Z,11.90
2023-06-22T17:36:52.840Z,13.25
2023-06-22T17:39:23.058Z,12.18
2023-06-22T17:41:51.985Z,12.55
2023-06-22T17:44:27.581Z,12.07
2023-06-22T17:46:59.994Z,12.88
2023-06-22T17:49:32.422Z,11.85
2023-06-22T17:52:02.160Z,12.00
2023-06-22T17:54:40.388Z,11.90
2023-06-22T17:57:16.930Z,12.70
2023-06-22T17:59:51.748Z,12.32
2023-06-22T18:02:26.029Z,12.35
2023-06-22T18:04:58.786Z,12.60
2023-06-22T18:07:30.292Z,12.40
2023-06-22T18:10:00.538Z,12.18
2023-06-22T18:12:29.321Z,12.32
2023-06-22T18:14:58.236Z,13.05
2023-06-22T18:17:27.013Z,12.00
2023-06-22T18:19:58.696Z,12.98
2023-06-22T18:22:26.782Z,12.80
2023-06-22T18:24:56.542Z,13.45
2023-06-22T18:27:26.549Z,13.13
2023-06-22T18:29:57.085Z,12.93
2023-06-22T18:32:24.709Z,12.40
2023-06-22T18:34:52.640Z,12.60
2023-06-22T18:37:21.482Z,13.40
2023-06-22T18:39:55.595Z,13.23
2023-06-22T18:42:23.022Z,13.82
2023-06-22T18:44:55.511Z,13.05
2023-06-22T18:47:31.861Z,13.52
2023-06-22T18:50:09.486Z,14.13
2023-06-22T18:52:38.090Z,12.95
2023-06-22T18:55:13.322Z,13.77
2023-06-22T18:57:40.833Z,14.27
2023-06-22T19:00:10.530Z,13.45
2023-06-22T19:02:59.613Z,14.82
2023-06-22T19:05:43.750Z,15.65
2023-06-22T19:08:12.074Z,14.82
2023-06-22T19:10:44.328Z,15.23
2023-06-22T19:13:17.612Z,15.00
2023-06-22T19:15:46.405Z,14.45
2023-06-22T19:18:26.481Z,15.02
2023-06-22T19:21:21.142Z,14.88
2023-06-22T19:23:48.794Z,15.15
2023-06-22T19:26:19.187Z,15.05
2023-06-22T19:28:55.629Z,14.68
2023-06-22T19:31:25.761Z,15.70
2023-06-22T19:34:05.135Z,16.25
2023-06-22T19:36:35.605Z,15.65
2023-06-22T19:39:05.144Z,15.40
2023-06-22T19:41:33.034Z,16.10
2023-06-22T19:44:01.039Z,14.88
2023-06-22T19:46:31.172Z,16.15
2023-06-22T19:48:59.682Z,14.63
2023-06-22T19:51:37.058Z,16.80
2023-06-22T19:54:11.347Z,15.80
2023-06-22T19:56:39.221Z,16.85
2023-06-22T19:59:13.914Z,17.05
2023-06-22T20:01:41.964Z,17.02
2023-06-22T20:04:11.001Z,16.38
2023-06-22T20:06:39.073Z,15.88
2023-06-22T20:09:07.656Z,16.60
2023-06-22T20:11:36.376Z,15.95
2023-06-22T20:14:04.282Z,17.13
2023-06-22T20:16:32.207Z,17.40
2023-06-22T20:19:12.929Z,17.08
2023-06-22T20:21:41.537Z,18.38
2023-06-22T20:24:12.281Z,17.73
2023-06-22T20:26:45.349Z,17.08
2023-06-22T20:29:30.924Z,17.98
2023-06-22T20:32:14.426Z,17.73
2023-06-22T20:34:47.377Z,17.77
2023-06-22T20:37:18.400Z,17.65
2023-06-22T20:39:48.653Z,18.15
2023-06-22T20:42:17.080Z,18.38
2023-06-22T20:44:44.367Z,18.55
2023-06-22T20:47:11.854Z,18.60
2023-06-22T20:49:39.225Z,18.83
2023-06-22T20:52:07.471Z,19.02
2023-06-22T20:54:35.659Z,19.80
2023-06-22T20:57:03.195Z,20.67
2023-06-22T20:59:30.967Z,20.27
2023-06-22T21:01:59.000Z,19.42
2023-06-22T21:04:26.558Z,20.25
2023-06-22T21:06:54.095Z,20.77
2023-06-22T21:09:21.418Z,21.13
2023-06-22T21:11:48.878Z,21.88
2023-06-22T21:14:19.996Z,22.05
2023-06-22T21:16:48.846Z,22.30
2023-06-22T21:19:16.467Z,22.30
2023-06-22T21:21:44.232Z,22.30
2023-06-22T21:24:15.090Z,22.38
2023-06-22T21:26:42.569Z,22.05
2023-06-22T21:29:10.131Z,23.80
2023-06-22T21:31:37.503Z,21.75
2023-06-22T21:34:04.786Z,22.58
2023-06-22T21:36:32.377Z,22.00
2023-06-22T21:38:59.665Z,21.92
2023-06-22T21:41:26.934Z,22.35
2023-06-22T21:43:54.256Z,21.75
2023-06-22T21:46:22.650Z,21.80
2023-06-22T21:48:50.050Z,22.55
2023-06-22T21:51:17.854Z,22.27
2023-06-22T21:53:45.207Z,22.40
2023-06-22T21:56:12.670Z,23.30
2023-06-22T21:58:40.236Z,24.63
2023-06-22T22:01:07.607Z,23.92
2023-06-22T22:03:35.081Z,24.77
2023-06-22T22:06:02.422Z,24.85
2023-06-22T22:08:29.838Z,24.58
2023-06-22T22:10:57.297Z,24.00
2023-06-22T22:13:24.778Z,25.05
2023-06-22T22:15:52.123Z,23.20
2023-06-22T22:18:19.711Z,24.52
2023-06-22T22:20:47.042Z,23.98
2023-06-22T22:23:14.467Z,24.23
2023-06-22T22:25:41.835Z,22.45
2023-06-22T22:28:09.190Z,24.30
2023-06-22T22:30:36.527Z,24.85
2023-06-22T22:33:04.090Z,24.42
2023-06-22T22:35:32.011Z,24.00
2023-06-22T22:37:59.783Z,24.25
2023-06-22T22:40:27.207Z,25.70
2023-06-22T22:42:54.513Z,23.63
2023-06-22T22:45:22.189Z,23.25
2023-06-22T22:47:49.724Z,23.13
2023-06-22T22:50:17.209Z,24.20
2023-06-22T22:52:44.524Z,24.52
2023-06-22T22:55:11.994Z,24.27
2023-06-22T22:57:39.495Z,25.00
2023-06-22T23:00:08.609Z,25.23
2023-06-22T23:02:36.684Z,25.25
2023-06-22T23:05:04.838Z,25.17
2023-06-22T23:07:32.305Z,23.38
2023-06-22T23:09:59.673Z,24.67
2023-06-22T23:12:28.186Z,25.33
2023-06-22T23:14:55.468Z,25.55
2023-06-22T23:17:22.988Z,25.55
2023-06-22T23:19:51.504Z,24.90
2023-06-22T23:22:18.906Z,25.65
2023-06-22T23:24:47.466Z,25.75
2023-06-22T23:27:14.916Z,25.83
2023-06-22T23:29:43.094Z,24.83
2023-06-22T23:32:10.713Z,23.20
2023-06-22T23:34:38.122Z,24.42
2023-06-22T23:37:05.851Z,24.40
2023-06-22T23:39:33.149Z,25.52
2023-06-22T23:42:00.526Z,25.30
2023-06-22T23:44:27.869Z,25.95
2023-06-22T23:46:55.206Z,25.40
2023-06-22T23:49:22.864Z,24.63
2023-06-22T23:51:50.129Z,25.10
2023-06-22T23:54:17.621Z,24.42
2023-06-22T23:56:44.926Z,26.52
2023-06-22T23:59:12.173Z,25.25
